Terminal Aerodrome Forecast
Issued by NWS Wilmington, OH

Current Version | Previous Version | Graphics & Text | Print | Product List | Glossary On
Versions: 1 2 3 4 5 6 7 8 9 10 11 12 13 14 15 16 17 18 19 20 21 22 23 24 25 26 27 28
000
FTUS41 KILN 291700
TAFDAY
TAF
KDAY 291740Z 2918/3018 15008KT 4SM -RA BR VCSH BKN009 OVC012
     FM292000 21010KT P6SM VCSH SCT012 BKN035
     FM300200 23008KT P6SM BKN035
     FM301400 24012KT P6SM VCSH BKN040=

USA.gov is the U.S. government's official web portal to all federal, state and local government web resources and services.